Flight Track Log - Related Links

Times and Time Zones

All times are in EDT time to prevent confusion due to time zone crossing. See the CPT7773 flight status page for this flight to view local times or setup timezone preferences in your user account.

Time Position Orientation Groundspeed Altitude Reporting Facility
EDT Latitude Longitude Course Direction KTS MPH feet Rate Location/Type
Mon 07:46:50 PM 44.5231 -108.9633 106° East 125 144 6,600  Level Salt Lake Center
Mon 07:48:00 PM 44.4800 -108.9260 148° Southeast  Level FlightAware Approximate
Mon 07:48:53 PM 44.5036 -108.8661 148° Southeast 125 144 8,800  Level Salt Lake Center
Mon 07:50:00 PM 44.4714 -108.8155 115° Southeast  Level Estimated
Mon 07:50:56 PM 44.4861 -108.7750 115° Southeast 127 146 10,400  Level Salt Lake Center
Mon 07:51:57 PM 44.4678 -108.7222 116° Southeast 131 151 11,100 195 Climbing Salt Lake Center
Mon 07:53:00 PM 44.4366 -108.6758 133° Southeast  Level FlightAware Approximate
Mon 07:54:01 PM 44.4033 -108.6267 133° Southeast 159 183 11,000  Level Salt Lake Center
Mon 07:55:02 PM 44.3736 -108.5819 133° Southeast 162 186 11,000  Level Salt Lake Center
Mon 07:56:04 PM 44.3456 -108.5369 131° Southeast 162 186 11,000  Level Salt Lake Center
Mon 07:58:00 PM 44.2870 -108.4530 134° Southeast  Level FlightAware Approximate
Mon 07:58:47 PM 44.2611 -108.4039 134° Southeast 159 183 11,000  Level Denver Center
Mon 07:59:08 PM 44.2514 -108.3911 137° Southeast 159 183 11,100  Climbing Salt Lake Center
Mon 08:00:51 PM 44.2047 -108.3150 131° Southeast 160 184 11,000 -49 Descending Denver Center
Mon 08:01:11 PM 44.1900 -108.2953 136° Southeast 160 184 11,000 73 Level Salt Lake Center
Mon 08:02:13 PM 44.1611 -108.2533 134° Southeast 158 182 11,100  Climbing Salt Lake Center
Mon 08:03:14 PM 44.1328 -108.2097 132° Southeast 158 182 11,000 -49 Descending Salt Lake Center
Mon 08:04:16 PM 44.0992 -108.1586 132° Southeast 159 183 11,000  Level Salt Lake Center
Mon 08:06:13 PM 44.0422 -108.0689 131° Southeast 161 185 11,000 34 Level Denver Center
Mon 08:07:15 PM 44.0103 -108.0181 131° Southeast 158 182 11,100 48 Climbing Denver Center
Mon 08:08:17 PM 43.9814 -107.9750 133° Southeast 159 183 11,100  Level Denver Center
Mon 08:09:23 PM 43.9481 -107.9261 133° Southeast 158 182 11,100 -47 Level Salt Lake Center
Mon 08:10:25 PM 43.9256 -107.8772 123° Southeast 156 180 11,000  Descending Salt Lake Center
Mon 08:13:00 PM 43.8877 -107.7953 123° Southeast  Level FlightAware Approximate
Mon 08:13:29 PM 43.8450 -107.7178 123° Southeast 157 181 11,100  Level Salt Lake Center
Mon 08:14:31 PM 43.8208 -107.6725 126° Southeast 155 178 11,100  Level Salt Lake Center
Mon 08:15:32 PM 43.7981 -107.6281 125° Southeast 152 175 11,100  Level Salt Lake Center
Mon 08:16:34 PM 43.7703 -107.5742 126° Southeast 152 175 11,100  Level Salt Lake Center
Mon 08:17:35 PM 43.7461 -107.5267 125° Southeast 154 177 11,100  Level Salt Lake Center
Mon 08:18:37 PM 43.7189 -107.4742 126° Southeast 153 176 11,100  Level Salt Lake Center
Mon 08:20:40 PM 43.6681 -107.3717 124° Southeast 155 178 11,100  Level Denver Center
Mon 08:21:42 PM 43.6444 -107.3247 125° Southeast 156 180 11,100  Level Denver Center
Mon 08:22:43 PM 43.6178 -107.2783 128° Southeast 158 182 11,100  Level Salt Lake Center
Mon 08:23:44 PM 43.5894 -107.2244 126° Southeast 157 181 11,100  Level Salt Lake Center
Mon 08:24:46 PM 43.5672 -107.1792 124° Southeast 154 177 11,100  Level Salt Lake Center
Mon 08:25:47 PM 43.5386 -107.1269 127° Southeast 152 175 11,100 -49 Level Salt Lake Center
Mon 08:26:49 PM 43.5144 -107.0814 126° Southeast 153 176 11,000  Descending Salt Lake Center
Mon 08:27:52 PM 43.4883 -107.0278 124° Southeast 152 175 11,100 48 Climbing Denver Center
Mon 08:28:54 PM 43.4639 -106.9825 127° Southeast 153 176 11,100 -48 Level Denver Center
Mon 08:29:56 PM 43.4364 -106.9292 125° Southeast 154 177 11,000  Descending Denver Center
Mon 08:30:58 PM 43.4133 -106.8844 125° Southeast 152 175 11,100  Climbing Denver Center
Mon 08:31:59 PM 43.3758 -106.8508 147° Southeast 157 181 11,000 -293 Descending Denver Center
Mon 08:33:01 PM 43.3389 -106.8228 151° Southeast 158 182 10,500 -581 Descending Denver Center
Mon 08:34:03 PM 43.2978 -106.7883 149° Southeast 156 180 9,800 -435 Descending Denver Center
Mon 08:35:05 PM 43.2628 -106.7586 148° Southeast 155 178 9,600 -195 Descending Denver Center
Mon 08:36:06 PM 43.2267 -106.7244 145° Southeast 147 169 9,400 -341 Descending Denver Center
Mon 08:37:08 PM 43.1917 -106.6958 149° Southeast 148 170 8,900 -581 Descending Denver Center
Mon 08:38:10 PM 43.1500 -106.6628 150° Southeast 151 174 8,200 -364 Descending Denver Center
Mon 08:40:00 PM 43.0811 -106.6061 127° Southeast  Level Estimated
Mon 08:41:15 PM 43.0297 -106.5925 127° Southeast 107 123 7,400  Level Denver Center
Mon 08:42:17 PM 42.9956 -106.5714 156° South 142 163 7,300 -97 Descending Denver Center
Mon 08:44:00 PM 42.9394 -106.4999 137° Southeast  Level FlightAware Approximate
Mon 08:51:00 PM 42.9080 -106.4644 140° Southeast  Level Estimated
Mon 08:52:00 PM 42.9080 -106.4644 140° Southeast  Level Estimated
Mon 08:53:00 PM 42.9080 -106.4644 140° Southeast  Level Estimated
Mon 08:54:00 PM 42.9080 -106.4644 140° Southeast  Level Estimated

Login

Don't have an account? Register now (free) for customized features, flight alerts, and more!